createdAt,value
2022-11-29T00:01:08.072Z,99882.55
2022-11-29T00:04:15.942Z,99886.30
2022-11-29T00:07:19.270Z,99887.21
2022-11-29T00:10:22.234Z,99886.30
2022-11-29T00:13:25.071Z,99890.92
2022-11-29T00:16:32.667Z,99891.38
2022-11-29T00:19:47.236Z,99888.84
2022-11-29T00:22:53.834Z,99887.27
2022-11-29T00:26:07.352Z,99893.83
2022-11-29T00:29:13.615Z,99891.93
2022-11-29T00:32:31.537Z,99890.27
2022-11-29T00:35:37.409Z,99891.30
2022-11-29T00:38:41.728Z,99882.90
2022-11-29T00:41:46.486Z,99880.47
2022-11-29T00:44:49.316Z,99884.20
2022-11-29T00:47:52.126Z,99885.18
2022-11-29T00:50:54.992Z,99882.05
2022-11-29T00:53:57.771Z,99883.77
2022-11-29T00:57:01.832Z,99884.42
2022-11-29T01:00:05.357Z,99884.88
2022-11-29T01:03:08.280Z,99884.05
2022-11-29T01:06:15.125Z,99885.42
2022-11-29T01:09:21.779Z,99888.61
2022-11-29T01:12:24.672Z,99886.89
2022-11-29T01:15:28.583Z,99887.56
2022-11-29T01:18:32.496Z,99891.05
2022-11-29T01:21:35.594Z,99890.27
2022-11-29T01:24:38.388Z,99891.01
2022-11-29T01:27:41.685Z,99892.64
2022-11-29T01:30:46.801Z,99897.13
2022-11-29T01:33:53.542Z,99893.37
2022-11-29T01:36:58.425Z,99897.34
2022-11-29T01:40:01.710Z,99894.42
2022-11-29T01:43:13.719Z,99895.48
2022-11-29T01:46:17.683Z,99889.98
2022-11-29T01:49:38.748Z,99894.05
2022-11-29T01:52:42.058Z,99894.77
2022-11-29T01:55:51.053Z,99890.23
2022-11-29T01:58:54.746Z,99891.77
2022-11-29T02:02:04.895Z,99888.84
2022-11-29T02:05:08.882Z,99890.59
2022-11-29T02:08:14.816Z,99890.20
2022-11-29T02:11:20.934Z,99888.24
2022-11-29T02:14:50.047Z,99889.77
2022-11-29T02:18:02.699Z,99886.19
2022-11-29T02:21:50.060Z,99884.09
2022-11-29T02:25:25.425Z,99884.91
2022-11-29T02:28:41.457Z,99881.09
2022-11-29T02:32:21.995Z,99886.98
2022-11-29T02:35:24.828Z,99889.55
2022-11-29T02:39:08.311Z,99894.95
2022-11-29T02:42:33.179Z,99893.74
2022-11-29T02:46:07.572Z,99891.00
2022-11-29T02:49:22.588Z,99896.76
2022-11-29T02:52:39.629Z,99896.42
2022-11-29T02:56:03.589Z,99900.30
2022-11-29T02:59:34.955Z,99901.64
2022-11-29T03:02:50.178Z,99900.80
2022-11-29T03:06:11.065Z,99905.55
2022-11-29T03:09:23.979Z,99901.44
2022-11-29T03:12:55.870Z,99905.04
2022-11-29T03:16:11.721Z,99905.48
2022-11-29T03:19:42.880Z,99904.48
2022-11-29T03:22:57.912Z,99908.71
2022-11-29T03:26:11.692Z,99910.08
2022-11-29T03:29:23.594Z,99906.27
2022-11-29T03:32:42.670Z,99910.59
2022-11-29T03:36:00.849Z,99911.58
2022-11-29T03:39:07.616Z,99914.11
2022-11-29T03:42:26.541Z,99920.21
2022-11-29T03:45:53.763Z,99917.96
2022-11-29T03:49:13.571Z,99915.95
2022-11-29T03:52:38.502Z,99918.22
2022-11-29T03:56:03.716Z,99916.98
2022-11-29T03:59:37.820Z,99922.60
2022-11-29T04:02:58.849Z,99928.36
2022-11-29T04:06:45.258Z,99930.06
2022-11-29T04:09:54.171Z,99930.36
2022-11-29T04:13:19.420Z,99925.33
2022-11-29T04:17:01.029Z,99928.77
2022-11-29T04:20:22.662Z,99930.77
2022-11-29T04:23:47.397Z,99934.48
2022-11-29T04:27:27.472Z,99932.58
2022-11-29T04:30:48.063Z,99938.20
2022-11-29T04:34:15.494Z,99934.48
2022-11-29T04:37:43.681Z,99943.52
2022-11-29T04:41:17.877Z,99944.09
2022-11-29T04:44:42.738Z,99943.92
2022-11-29T04:48:11.843Z,99946.39
2022-11-29T04:51:39.201Z,99956.25
2022-11-29T04:54:45.226Z,99953.73
2022-11-29T04:57:56.283Z,99961.30
2022-11-29T05:01:23.446Z,99967.20
2022-11-29T05:05:12.258Z,99971.91
2022-11-29T05:08:27.738Z,99974.64
2022-11-29T05:11:54.480Z,99975.32
2022-11-29T05:15:00.259Z,99974.84
2022-11-29T05:18:46.285Z,99979.45
2022-11-29T05:22:23.531Z,99981.48
2022-11-29T05:26:00.410Z,99978.46
2022-11-29T05:29:10.158Z,99984.91
2022-11-29T05:32:50.781Z,99989.67
2022-11-29T05:36:01.115Z,99994.44
2022-11-29T05:39:21.743Z,99995.23
2022-11-29T05:42:57.788Z,100000.34
2022-11-29T05:46:09.414Z,99998.83
2022-11-29T05:49:50.167Z,100004.48
2022-11-29T05:53:00.266Z,100010.04
2022-11-29T05:56:25.448Z,100005.87
2022-11-29T05:59:30.219Z,100015.09
2022-11-29T06:03:03.776Z,100016.09
2022-11-29T06:06:19.606Z,100021.70
2022-11-29T06:09:59.167Z,100020.80
2022-11-29T06:13:19.021Z,100021.54
2022-11-29T06:16:34.215Z,100023.52
2022-11-29T06:19:53.256Z,100025.92
2022-11-29T06:23:04.871Z,100030.20
2022-11-29T06:26:29.342Z,100034.23
2022-11-29T06:30:00.445Z,100032.38
2022-11-29T06:33:28.679Z,100032.52
2022-11-29T06:36:55.942Z,100033.25
2022-11-29T06:39:59.035Z,100037.56
2022-11-29T06:43:02.234Z,100040.67
2022-11-29T06:46:24.845Z,100043.40
2022-11-29T06:49:49.544Z,100045.61
2022-11-29T06:53:00.624Z,100044.83
2022-11-29T06:56:19.758Z,100047.29
2022-11-29T06:59:45.638Z,100051.91
2022-11-29T07:03:30.251Z,100056.55
2022-11-29T07:06:35.113Z,100059.38
2022-11-29T07:09:38.224Z,100056.88
2022-11-29T07:12:41.333Z,100055.58
2022-11-29T07:16:12.364Z,100060.38
2022-11-29T07:19:34.347Z,100058.71
2022-11-29T07:22:49.319Z,100065.27
2022-11-29T07:26:06.975Z,100063.92
2022-11-29T07:29:28.267Z,100065.77
2022-11-29T07:32:34.541Z,100071.54
2022-11-29T07:35:46.866Z,100073.18
2022-11-29T07:39:11.307Z,100074.48
2022-11-29T07:42:23.321Z,100075.63
2022-11-29T07:45:30.012Z,100075.04
2022-11-29T07:48:32.863Z,100078.16
2022-11-29T07:51:35.886Z,100079.83
2022-11-29T07:54:39.010Z,100079.02
2022-11-29T07:57:41.965Z,100087.99
2022-11-29T08:00:45.671Z,100090.30
2022-11-29T08:03:48.605Z,100093.86
2022-11-29T08:06:51.541Z,100092.65
2022-11-29T08:09:54.367Z,100093.38
2022-11-29T08:12:57.323Z,100100.43
2022-11-29T08:16:00.226Z,100094.58
2022-11-29T08:19:03.801Z,100096.87
2022-11-29T08:22:06.577Z,100099.02
2022-11-29T08:25:10.370Z,100101.45
2022-11-29T08:28:13.191Z,100099.00
2022-11-29T08:31:16.068Z,100098.20
2022-11-29T08:34:20.229Z,100098.10
2022-11-29T08:37:23.185Z,100098.92
2022-11-29T08:40:25.994Z,100098.33
2022-11-29T08:43:30.236Z,100098.14
2022-11-29T08:46:51.730Z,100102.34
2022-11-29T08:50:03.820Z,100104.30
2022-11-29T08:53:25.824Z,100108.83
2022-11-29T08:57:16.648Z,100111.18
2022-11-29T08:59:53.387Z,100114.74
2022-11-29T09:02:56.236Z,100114.84
2022-11-29T09:05:59.860Z,100120.30
2022-11-29T09:09:03.681Z,100123.00
2022-11-29T09:12:08.703Z,100126.92
2022-11-29T09:15:12.755Z,100126.27
2022-11-29T09:18:15.565Z,100128.34
2022-11-29T09:21:19.090Z,100127.91
2022-11-29T09:24:21.951Z,100127.80
2022-11-29T09:27:24.809Z,100132.60
2022-11-29T09:30:30.714Z,100133.34
2022-11-29T09:33:34.498Z,100135.73
2022-11-29T09:36:37.308Z,100135.66
2022-11-29T09:39:41.625Z,100131.71
2022-11-29T09:43:11.216Z,100132.20
2022-11-29T09:46:30.431Z,100130.96
2022-11-29T09:49:42.844Z,100130.52
2022-11-29T09:53:00.934Z,100129.78
2022-11-29T09:56:27.060Z,100130.09
2022-11-29T09:59:35.944Z,100132.71
2022-11-29T10:02:47.740Z,100134.35
2022-11-29T10:05:57.743Z,100135.21
2022-11-29T10:09:12.447Z,100132.02
2022-11-29T10:12:18.435Z,100133.34
2022-11-29T10:15:25.962Z,100137.86
2022-11-29T10:18:44.444Z,100140.61
2022-11-29T10:22:00.928Z,100142.08
2022-11-29T10:25:09.642Z,100143.59
2022-11-29T10:28:26.113Z,100142.81
2022-11-29T10:31:35.134Z,100145.92
2022-11-29T10:34:38.813Z,100140.98
2022-11-29T10:37:45.872Z,100144.49
2022-11-29T10:41:07.239Z,100146.44
2022-11-29T10:44:14.680Z,100145.16
2022-11-29T10:47:17.525Z,100144.78
2022-11-29T10:50:27.375Z,100145.98
2022-11-29T10:53:37.449Z,100145.11
2022-11-29T10:56:42.254Z,100149.91
2022-11-29T11:00:17.752Z,100145.68
2022-11-29T11:03:53.388Z,100145.27
2022-11-29T11:07:01.342Z,100143.02
2022-11-29T11:10:37.245Z,100146.98
2022-11-29T11:13:41.259Z,100149.48
2022-11-29T11:16:44.264Z,100148.48
2022-11-29T11:20:08.509Z,100149.10
2022-11-29T11:23:27.233Z,100145.76
2022-11-29T11:26:43.170Z,100146.59
2022-11-29T11:29:46.152Z,100149.02
2022-11-29T11:33:08.155Z,100152.90
2022-11-29T11:36:14.264Z,100152.95
2022-11-29T11:39:22.950Z,100153.67
2022-11-29T11:42:39.061Z,100155.26
2022-11-29T11:45:42.177Z,100159.21
2022-11-29T11:48:45.189Z,100158.23
2022-11-29T11:51:48.047Z,100165.99
2022-11-29T11:54:55.037Z,100166.93
2022-11-29T11:58:09.724Z,100169.27
2022-11-29T12:01:13.414Z,100169.80
2022-11-29T12:04:27.776Z,100162.60
2022-11-29T12:08:07.409Z,100170.13
2022-11-29T12:11:14.607Z,100173.86
2022-11-29T12:14:56.873Z,100175.50
2022-11-29T12:18:10.159Z,100174.02
2022-11-29T12:21:19.578Z,100174.79
2022-11-29T12:24:35.700Z,100173.57
2022-11-29T12:27:38.626Z,100173.20
2022-11-29T12:30:47.540Z,100176.13
2022-11-29T12:34:10.162Z,100172.73
2022-11-29T12:37:25.258Z,100175.88
2022-11-29T12:40:58.636Z,100170.62
2022-11-29T12:44:15.243Z,100174.98
2022-11-29T12:47:37.410Z,100178.52
2022-11-29T12:51:08.302Z,100181.77
2022-11-29T12:54:38.848Z,100185.63
2022-11-29T12:57:47.836Z,100184.11
2022-11-29T13:01:04.198Z,100183.25
2022-11-29T13:04:27.429Z,100184.42
2022-11-29T13:08:16.866Z,100189.39
2022-11-29T13:11:36.761Z,100191.54
2022-11-29T13:15:07.045Z,100198.09
2022-11-29T13:18:24.192Z,100201.24
2022-11-29T13:21:48.873Z,100201.77
2022-11-29T13:24:51.632Z,100208.22
2022-11-29T13:27:59.030Z,100203.78
2022-11-29T13:31:06.605Z,100210.80
2022-11-29T13:34:29.349Z,100211.70
2022-11-29T13:37:53.541Z,100212.08
2022-11-29T13:41:01.827Z,100215.89
2022-11-29T13:44:11.532Z,100218.79
2022-11-29T13:47:19.018Z,100216.28
2022-11-29T13:50:41.827Z,100216.89
2022-11-29T13:53:48.762Z,100218.11
2022-11-29T13:57:05.569Z,100221.51
2022-11-29T14:00:39.765Z,100225.36
2022-11-29T14:03:45.437Z,100227.70
2022-11-29T14:06:49.854Z,100229.36
2022-11-29T14:10:03.438Z,100228.41
2022-11-29T14:13:14.689Z,100232.45
2022-11-29T14:16:36.498Z,100232.98
2022-11-29T14:19:39.549Z,100234.38
2022-11-29T14:23:05.146Z,100237.48
2022-11-29T14:26:07.961Z,100238.25
2022-11-29T14:29:48.740Z,100240.48
2022-11-29T14:33:04.372Z,100242.21
2022-11-29T14:36:18.917Z,100234.98
2022-11-29T14:39:42.347Z,100237.77
2022-11-29T14:42:49.223Z,100235.96
2022-11-29T14:46:16.721Z,100238.79
2022-11-29T14:49:26.315Z,100241.79
2022-11-29T14:52:40.847Z,100246.08
2022-11-29T14:55:43.735Z,100250.63
2022-11-29T14:58:48.026Z,100253.13
2022-11-29T15:01:51.037Z,100254.60
2022-11-29T15:04:56.935Z,100258.20
2022-11-29T15:08:17.204Z,100261.88
2022-11-29T15:11:32.350Z,100267.92
2022-11-29T15:15:04.566Z,100268.97
2022-11-29T15:18:20.447Z,100272.88
2022-11-29T15:22:28.511Z,100276.58
2022-11-29T15:25:33.137Z,100278.42
2022-11-29T15:28:36.023Z,100277.73
2022-11-29T15:31:42.355Z,100278.45
2022-11-29T15:34:50.536Z,100277.92
2022-11-29T15:37:54.414Z,100287.30
2022-11-29T15:40:58.575Z,100289.35
2022-11-29T15:44:07.211Z,100285.73
2022-11-29T15:47:24.439Z,100290.19
2022-11-29T15:50:32.548Z,100275.40
2022-11-29T15:53:44.250Z,100289.46
2022-11-29T15:56:52.135Z,100284.81
2022-11-29T15:59:59.303Z,100297.73
2022-11-29T16:03:04.628Z,100300.33
2022-11-29T16:06:27.637Z,100301.09
2022-11-29T16:09:41.033Z,100301.77
2022-11-29T16:13:25.630Z,100307.48
2022-11-29T16:16:32.578Z,100306.26
2022-11-29T16:19:38.011Z,100315.20
2022-11-29T16:22:40.898Z,100320.41
2022-11-29T16:25:55.482Z,100324.60
2022-11-29T16:28:58.376Z,100325.09
2022-11-29T16:32:14.259Z,100326.95
2022-11-29T16:35:26.727Z,100330.85
2022-11-29T16:38:29.721Z,100335.22
2022-11-29T16:41:33.725Z,100339.16
2022-11-29T16:44:46.901Z,100336.04
2022-11-29T16:47:53.225Z,100337.42
2022-11-29T16:51:08.164Z,100335.25
2022-11-29T16:54:31.875Z,100337.88
2022-11-29T16:57:35.095Z,100337.58
2022-11-29T17:00:45.602Z,100338.00
2022-11-29T17:03:50.911Z,100336.04
2022-11-29T17:06:57.650Z,100332.13
2022-11-29T17:10:01.468Z,100346.72
2022-11-29T17:13:04.731Z,100336.88
2022-11-29T17:16:12.970Z,100344.82
2022-11-29T17:19:16.445Z,100348.10
2022-11-29T17:22:19.304Z,100351.95
2022-11-29T17:25:25.993Z,100351.56
2022-11-29T17:28:31.708Z,100352.33
2022-11-29T17:31:34.976Z,100358.02
2022-11-29T17:34:37.888Z,100359.55
2022-11-29T17:37:40.901Z,100358.85
2022-11-29T17:40:46.970Z,100365.05
2022-11-29T17:43:51.074Z,100369.48
2022-11-29T17:46:53.967Z,100370.84
2022-11-29T17:49:58.215Z,100372.80
2022-11-29T17:53:01.068Z,100373.94
2022-11-29T17:56:12.897Z,100377.86
2022-11-29T17:59:15.887Z,100377.04
2022-11-29T18:02:18.785Z,100376.69
2022-11-29T18:05:34.725Z,100375.06
2022-11-29T18:09:09.695Z,100381.02
2022-11-29T18:43:13.031Z,100400.31
2022-11-29T18:46:32.187Z,100402.33
2022-11-29T18:48:30.591Z,100400.92
2022-11-29T18:51:44.979Z,100403.45
2022-11-29T18:58:06.204Z,100404.02
2022-11-29T18:58:21.336Z,100403.92
2022-11-29T19:01:46.773Z,100404.64
2022-11-29T19:04:51.710Z,100408.73
2022-11-29T19:08:16.423Z,100408.83
2022-11-29T19:18:42.953Z,100405.52
2022-11-29T19:19:19.728Z,100402.82
2022-11-29T19:19:48.917Z,100405.73
2022-11-29T19:26:28.386Z,100409.14
2022-11-29T19:27:07.189Z,100414.14
2022-11-29T19:31:26.415Z,100413.29
2022-11-29T19:34:24.353Z,100415.53
2022-11-29T19:38:22.469Z,100416.94
2022-11-29T19:40:53.870Z,100412.34
2022-11-29T19:44:04.656Z,100423.94
2022-11-29T20:05:44.094Z,100444.11
2022-11-29T20:26:24.242Z,100446.11
2022-11-29T20:29:29.893Z,100446.81
2022-11-29T20:32:31.705Z,100446.05
2022-11-29T20:35:45.668Z,100445.95
2022-11-29T20:39:25.738Z,100444.05
2022-11-29T20:43:20.588Z,100442.48
2022-11-29T20:46:28.184Z,100441.16
2022-11-29T20:49:32.757Z,100438.60
2022-11-29T20:53:33.629Z,100446.25
2022-11-29T20:56:59.655Z,100441.63
2022-11-29T21:00:09.760Z,100447.20
2022-11-29T21:03:19.452Z,100452.38
2022-11-29T21:10:52.892Z,100453.48
2022-11-29T21:16:32.085Z,100441.07
2022-11-29T21:18:29.813Z,100456.23
2022-11-29T21:21:49.372Z,100456.17
2022-11-29T21:25:09.946Z,100455.86
2022-11-29T21:28:13.784Z,100464.86
2022-11-29T21:31:17.750Z,100458.55
2022-11-29T21:34:20.640Z,100465.73
2022-11-29T21:37:27.053Z,100475.11
2022-11-29T21:40:32.190Z,100478.73
2022-11-29T21:44:04.340Z,100480.30
2022-11-29T21:47:02.102Z,100475.65
2022-11-29T21:50:48.964Z,100483.66
2022-11-29T21:53:50.845Z,100472.99
2022-11-29T21:56:52.601Z,100487.82
2022-11-29T21:59:54.182Z,100487.89
2022-11-29T22:02:58.397Z,100488.73
2022-11-29T22:06:04.699Z,100488.19
2022-11-29T22:09:07.171Z,100484.99
2022-11-29T22:12:37.244Z,100485.91
2022-11-29T22:15:39.232Z,100477.44
2022-11-29T22:18:51.953Z,100482.06
2022-11-29T22:22:06.842Z,100477.31
2022-11-29T22:25:14.305Z,100474.04
2022-11-29T22:28:15.861Z,100474.25
2022-11-29T22:31:17.373Z,100477.42
2022-11-29T22:34:19.689Z,100475.88
2022-11-29T22:37:22.767Z,100475.19
2022-11-29T22:40:24.834Z,100480.58
2022-11-29T22:43:31.621Z,100478.82
2022-11-29T22:46:34.972Z,100479.68
2022-11-29T22:49:36.406Z,100476.89
2022-11-29T22:52:37.833Z,100471.00
2022-11-29T22:55:39.264Z,100478.68
2022-11-29T22:58:42.770Z,100474.16
2022-11-29T23:01:44.474Z,100473.83
2022-11-29T23:04:46.296Z,100483.75
2022-11-29T23:07:52.045Z,100486.00
2022-11-29T23:10:58.995Z,100477.20
2022-11-29T23:14:00.679Z,100481.51
2022-11-29T23:17:02.446Z,100480.66
2022-11-29T23:20:05.903Z,100486.39
2022-11-29T23:23:07.676Z,100490.71
2022-11-29T23:26:20.073Z,100485.00
2022-11-29T23:29:22.429Z,100481.83
2022-11-29T23:32:24.476Z,100483.77
2022-11-29T23:35:30.004Z,100480.27
2022-11-29T23:38:32.922Z,100488.06
2022-11-29T23:41:38.770Z,100480.68
2022-11-29T23:44:41.522Z,100487.84
2022-11-29T23:47:44.520Z,100490.45
2022-11-29T23:50:52.756Z,100479.09
2022-11-29T23:54:30.713Z,100485.64
2022-11-29T23:58:02.795Z,100485.23
